createdAt,value
2018-03-03T00:01:55.212Z,80.20
2018-03-03T00:04:23.447Z,80.80
2018-03-03T00:06:50.923Z,80.80
2018-03-03T00:09:18.431Z,80.10
2018-03-03T00:11:45.900Z,80.40
2018-03-03T00:14:13.403Z,79.30
2018-03-03T00:16:41.653Z,79.90
2018-03-03T00:19:09.158Z,79.90
2018-03-03T00:21:36.643Z,80.00
2018-03-03T00:24:04.130Z,79.40
2018-03-03T00:26:31.651Z,80.50
2018-03-03T00:28:59.132Z,80.70
2018-03-03T00:31:26.639Z,81.00
2018-03-03T00:33:54.912Z,81.20
2018-03-03T00:36:23.194Z,81.10
2018-03-03T00:38:51.460Z,81.10
2018-03-03T00:41:18.948Z,81.00
2018-03-03T00:43:46.467Z,81.20
2018-03-03T00:46:13.945Z,81.40
2018-03-03T00:48:42.223Z,80.60
2018-03-03T00:51:10.497Z,80.90
2018-03-03T00:53:38.726Z,80.80
2018-03-03T00:56:06.232Z,80.80
2018-03-03T00:58:34.482Z,81.00
2018-03-03T01:01:02.028Z,81.00
2018-03-03T01:03:29.499Z,81.60
2018-03-03T01:05:57.002Z,81.40
2018-03-03T01:08:24.482Z,80.90
2018-03-03T01:10:51.998Z,80.70
2018-03-03T01:13:19.485Z,80.50
2018-03-03T01:15:47.001Z,81.20
2018-03-03T01:18:14.491Z,81.30
2018-03-03T01:20:42.755Z,81.50
2018-03-03T01:23:11.019Z,80.40
2018-03-03T01:25:38.519Z,80.40
2018-03-03T01:28:06.016Z,79.80
2018-03-03T01:30:33.506Z,79.50
2018-03-03T01:33:01.775Z,80.00
2018-03-03T01:35:29.286Z,80.00
2018-03-03T01:37:56.779Z,81.50
2018-03-03T01:40:24.255Z,81.20
2018-03-03T01:42:51.769Z,82.10
2018-03-03T01:45:19.270Z,83.70
2018-03-03T01:47:46.751Z,84.50
2018-03-03T01:50:15.159Z,85.60
2018-03-03T01:52:42.642Z,85.60
2018-03-03T01:55:10.151Z,86.10
2018-03-03T01:57:37.633Z,86.60
2018-03-03T02:00:05.142Z,86.80
2018-03-03T02:02:32.612Z,88.10
2018-03-03T02:05:00.890Z,88.20
2018-03-03T02:07:29.152Z,88.20
2018-03-03T02:09:56.680Z,88.20
2018-03-03T02:12:24.146Z,88.30
2018-03-03T02:14:51.623Z,88.20
2018-03-03T02:17:19.141Z,88.90
2018-03-03T02:19:46.604Z,88.50
2018-03-03T02:22:14.115Z,88.80
2018-03-03T02:24:41.918Z,89.30
2018-03-03T02:27:09.417Z,89.70
2018-03-03T02:29:36.920Z,90.30
2018-03-03T02:32:05.182Z,90.40
2018-03-03T02:34:33.429Z,90.40
2018-03-03T02:37:00.978Z,90.40
2018-03-03T02:39:28.492Z,90.30
2018-03-03T02:41:56.746Z,90.60
2018-03-03T02:44:24.247Z,90.60
2018-03-03T02:46:51.724Z,90.60
2018-03-03T02:49:19.223Z,90.50
2018-03-03T02:51:47.463Z,90.70
2018-03-03T02:54:14.968Z,90.70
2018-03-03T02:56:43.209Z,90.90
2018-03-03T02:59:10.681Z,90.90
2018-03-03T03:01:38.179Z,90.90
2018-03-03T03:04:05.690Z,90.90
2018-03-03T03:06:33.193Z,90.90
2018-03-03T03:09:00.689Z,90.90
2018-03-03T03:11:28.211Z,90.90
2018-03-03T03:13:55.715Z,90.80
2018-03-03T03:16:23.189Z,90.80
2018-03-03T03:18:50.691Z,90.90
2018-03-03T03:21:18.259Z,90.90
2018-03-03T03:23:45.764Z,90.90
2018-03-03T03:26:14.103Z,91.00
2018-03-03T03:28:41.628Z,90.90
2018-03-03T03:31:09.873Z,90.90
2018-03-03T03:33:37.499Z,90.90
2018-03-03T03:36:04.970Z,90.90
2018-03-03T03:38:32.468Z,90.90
2018-03-03T03:40:59.961Z,91.00
2018-03-03T03:43:27.440Z,91.00
2018-03-03T03:45:54.959Z,91.00
2018-03-03T03:48:23.209Z,91.00
2018-03-03T03:50:50.707Z,91.00
2018-03-03T03:53:18.210Z,91.00
2018-03-03T03:55:45.709Z,91.00
2018-03-03T03:58:13.959Z,91.00
2018-03-03T04:00:41.459Z,91.00
2018-03-03T04:03:08.949Z,91.10
2018-03-03T04:05:36.419Z,91.10
2018-03-03T04:08:03.940Z,90.90
2018-03-03T04:10:31.419Z,91.10
2018-03-03T04:12:58.904Z,91.10
2018-03-03T04:15:26.374Z,91.10
2018-03-03T04:17:53.884Z,91.10
2018-03-03T04:20:21.391Z,91.20
2018-03-03T04:22:48.930Z,91.10
2018-03-03T04:25:16.403Z,91.10
2018-03-03T04:27:43.914Z,91.10
2018-03-03T04:30:11.396Z,91.10
2018-03-03T04:32:38.874Z,91.20
2018-03-03T04:35:06.437Z,91.10
2018-03-03T04:37:33.866Z,91.10
2018-03-03T04:40:01.373Z,91.10
2018-03-03T04:42:28.846Z,91.00
2018-03-03T04:44:57.121Z,91.00
2018-03-03T04:47:25.354Z,91.00
2018-03-03T04:49:52.858Z,91.00
2018-03-03T04:52:21.131Z,91.10
2018-03-03T04:54:49.379Z,91.10
2018-03-03T04:57:16.906Z,91.10
2018-03-03T05:02:55.756Z,91.20
2018-03-03T05:05:31.758Z,91.20
2018-03-03T05:08:01.222Z,91.10
2018-03-03T05:10:28.698Z,91.20
2018-03-03T05:12:58.851Z,91.20
2018-03-03T05:15:29.295Z,91.20
2018-03-03T05:18:18.504Z,91.10
2018-03-03T05:20:51.639Z,91.10
2018-03-03T05:26:28.820Z,91.20
2018-03-03T05:29:02.077Z,91.10
2018-03-03T05:31:30.473Z,91.10
2018-03-03T05:37:26.396Z,91.20
2018-03-03T05:40:00.694Z,91.20
2018-03-03T05:45:44.313Z,91.20
2018-03-03T05:48:26.782Z,91.20
2018-03-03T05:50:54.282Z,91.20
2018-03-03T05:53:27.374Z,91.20
2018-03-03T05:55:58.570Z,91.20
2018-03-03T05:58:34.339Z,91.20
2018-03-03T06:01:07.483Z,91.20
2018-03-03T06:03:40.780Z,91.10
2018-03-03T06:06:13.995Z,91.20
2018-03-03T06:08:42.762Z,91.10
2018-03-03T06:11:10.255Z,91.10
2018-03-03T06:13:37.754Z,91.20
2018-03-03T06:16:05.263Z,91.10
2018-03-03T06:18:33.521Z,91.20
2018-03-03T06:21:01.029Z,91.20
2018-03-03T06:23:28.581Z,91.20
2018-03-03T06:25:56.057Z,91.10
2018-03-03T06:28:23.526Z,91.10
2018-03-03T06:30:51.070Z,91.10
2018-03-03T06:33:18.560Z,91.10
2018-03-03T06:35:46.071Z,91.10
2018-03-03T06:38:13.566Z,91.10
2018-03-03T06:40:41.064Z,91.10
2018-03-03T06:43:09.302Z,91.10
2018-03-03T06:45:36.819Z,91.10
2018-03-03T06:48:04.290Z,91.00
2018-03-03T06:50:31.802Z,91.10
2018-03-03T06:52:59.309Z,91.20
2018-03-03T06:55:26.813Z,91.20
2018-03-03T06:57:54.306Z,91.20
2018-03-03T07:00:21.783Z,91.20
2018-03-03T07:02:49.295Z,91.20
2018-03-03T07:05:17.546Z,91.30
2018-03-03T07:07:45.062Z,91.30
2018-03-03T07:10:13.325Z,91.40
2018-03-03T07:12:41.692Z,91.50
2018-03-03T07:15:24.170Z,91.50
2018-03-03T07:17:51.698Z,91.50
2018-03-03T07:20:19.217Z,91.50
2018-03-03T07:22:47.482Z,91.40
2018-03-03T07:25:15.011Z,91.40
2018-03-03T07:27:42.525Z,91.50
2018-03-03T07:30:10.773Z,91.50
2018-03-03T07:32:38.317Z,91.50
2018-03-03T07:35:05.806Z,91.40
2018-03-03T07:37:33.328Z,91.50
2018-03-03T07:40:00.802Z,91.50
2018-03-03T07:42:28.321Z,91.50
2018-03-03T07:44:55.850Z,91.40
2018-03-03T07:47:24.103Z,91.50
2018-03-03T07:49:51.635Z,91.50
2018-03-03T07:52:19.107Z,91.50
2018-03-03T07:54:46.637Z,91.50
2018-03-03T07:57:14.108Z,91.50
2018-03-03T07:59:41.650Z,91.50
2018-03-03T08:02:09.132Z,91.50
2018-03-03T08:04:36.662Z,91.50
2018-03-03T08:07:04.129Z,91.60
2018-03-03T08:09:31.634Z,91.60
2018-03-03T08:11:59.132Z,91.60
2018-03-03T08:14:26.632Z,91.60
2018-03-03T08:16:54.141Z,91.60
2018-03-03T08:19:22.378Z,91.60
2018-03-03T08:21:49.898Z,91.60
2018-03-03T08:24:17.394Z,91.60
2018-03-03T08:26:44.946Z,91.60
2018-03-03T08:29:12.455Z,91.60
2018-03-03T08:31:40.715Z,91.50
2018-03-03T08:34:08.223Z,91.50
2018-03-03T08:36:35.717Z,91.60
2018-03-03T08:39:03.227Z,91.60
2018-03-03T08:41:30.713Z,91.60
2018-03-03T08:43:58.238Z,91.60
2018-03-03T08:46:25.793Z,91.70
2018-03-03T08:48:53.308Z,91.70
2018-03-03T08:51:20.809Z,91.60
2018-03-03T08:53:49.075Z,91.60
2018-03-03T08:56:17.350Z,91.60
2018-03-03T08:58:45.596Z,91.70
2018-03-03T09:01:13.091Z,91.70
2018-03-03T09:03:41.345Z,91.70
2018-03-03T09:06:08.871Z,91.70
2018-03-03T09:08:36.370Z,91.60
2018-03-03T09:11:03.873Z,91.60
2018-03-03T09:13:31.366Z,91.70
2018-03-03T09:15:58.862Z,91.70
2018-03-03T09:18:27.159Z,91.60
2018-03-03T09:20:54.662Z,91.60
2018-03-03T09:23:22.196Z,91.50
2018-03-03T09:25:49.677Z,91.50
2018-03-03T09:28:17.222Z,91.60
2018-03-03T09:30:44.735Z,91.60
2018-03-03T09:33:12.998Z,91.50
2018-03-03T09:35:40.526Z,91.50
2018-03-03T09:38:08.036Z,91.50
2018-03-03T09:40:36.288Z,91.30
2018-03-03T09:43:03.781Z,91.30
2018-03-03T09:45:32.046Z,91.20
2018-03-03T09:48:00.360Z,91.20
2018-03-03T09:50:27.871Z,91.30
2018-03-03T09:52:55.423Z,91.40
2018-03-03T09:55:22.913Z,91.40
2018-03-03T09:57:50.436Z,91.20
2018-03-03T10:00:17.941Z,91.00
2018-03-03T10:02:45.443Z,91.20
2018-03-03T10:05:12.934Z,91.20
2018-03-03T10:07:41.239Z,90.70
2018-03-03T10:10:08.722Z,90.70
2018-03-03T10:12:36.208Z,90.80
2018-03-03T10:15:03.733Z,90.50
2018-03-03T10:17:31.282Z,90.70
2018-03-03T10:19:58.779Z,90.70
2018-03-03T10:22:26.254Z,90.70
2018-03-03T10:24:53.810Z,90.60
2018-03-03T10:27:21.338Z,90.30
2018-03-03T10:29:48.819Z,90.50
2018-03-03T10:32:16.290Z,90.10
2018-03-03T10:34:43.798Z,90.00
2018-03-03T10:37:11.310Z,90.30
2018-03-03T10:39:39.579Z,89.20
2018-03-03T10:42:08.574Z,89.30
2018-03-03T10:44:36.064Z,89.30
2018-03-03T10:47:03.534Z,90.10
2018-03-03T10:49:31.035Z,89.60
2018-03-03T10:51:58.534Z,89.80
2018-03-03T10:54:26.782Z,87.50
2018-03-03T10:56:54.285Z,87.40
2018-03-03T10:59:21.762Z,88.60
2018-03-03T11:01:49.282Z,87.20
2018-03-03T11:04:17.517Z,86.60
2018-03-03T11:06:45.047Z,86.60
2018-03-03T11:09:12.557Z,86.70
2018-03-03T11:11:40.024Z,87.00
2018-03-03T11:14:08.286Z,86.90
2018-03-03T11:16:35.761Z,86.90
2018-03-03T11:19:04.050Z,85.60
2018-03-03T11:21:32.274Z,86.30
2018-03-03T11:23:59.788Z,86.30
2018-03-03T11:26:28.051Z,84.60
2018-03-03T11:28:56.323Z,84.70
2018-03-03T11:31:23.791Z,84.60
2018-03-03T11:33:52.054Z,81.80
2018-03-03T11:36:19.795Z,81.80
2018-03-03T11:38:47.312Z,82.50
2018-03-03T11:41:14.781Z,79.60
2018-03-03T11:43:42.243Z,76.50
2018-03-03T11:46:09.754Z,76.20
2018-03-03T11:48:37.228Z,76.50
2018-03-03T11:51:05.509Z,74.70
2018-03-03T11:53:33.743Z,74.10
2018-03-03T11:56:01.264Z,74.00
2018-03-03T11:58:28.789Z,72.30
2018-03-03T12:00:57.091Z,73.10
2018-03-03T12:03:24.582Z,73.00
2018-03-03T12:05:52.102Z,73.60
2018-03-03T12:08:20.362Z,74.30
2018-03-03T12:10:48.659Z,73.70
2018-03-03T12:13:16.153Z,73.70
2018-03-03T12:15:43.639Z,73.20
2018-03-03T12:18:11.165Z,73.00
2018-03-03T12:20:38.640Z,74.20
2018-03-03T12:23:06.136Z,73.70
2018-03-03T12:25:34.380Z,73.10
2018-03-03T12:28:01.939Z,73.00
2018-03-03T12:30:29.424Z,71.20
2018-03-03T12:32:56.935Z,70.70
2018-03-03T12:35:24.441Z,71.00
2018-03-03T12:37:51.944Z,69.50
2018-03-03T12:40:19.452Z,69.80
2018-03-03T12:42:46.923Z,69.50
2018-03-03T12:45:15.155Z,69.40
2018-03-03T12:47:42.642Z,69.40
2018-03-03T12:50:10.136Z,68.50
2018-03-03T12:52:37.654Z,68.80
2018-03-03T12:55:05.135Z,68.50
2018-03-03T12:57:33.371Z,67.70
2018-03-03T13:00:00.898Z,67.60
2018-03-03T13:02:28.350Z,68.40
2018-03-03T13:04:55.858Z,67.90
2018-03-03T13:07:23.355Z,66.80
2018-03-03T13:09:51.632Z,67.30
2018-03-03T13:12:19.931Z,67.10
2018-03-03T13:14:47.398Z,67.10
2018-03-03T13:17:14.881Z,67.00
2018-03-03T13:19:42.382Z,66.60
2018-03-03T13:22:10.697Z,66.30
2018-03-03T13:24:38.908Z,66.50
2018-03-03T13:27:06.416Z,66.40
2018-03-03T13:29:33.905Z,66.40
2018-03-03T15:03:01.190Z,65.60
2018-03-03T15:05:28.749Z,66.20
2018-03-03T15:07:56.415Z,67.10
2018-03-03T15:10:23.919Z,67.70
2018-03-03T15:12:52.171Z,67.80
2018-03-03T15:15:19.675Z,67.80
2018-03-03T15:17:47.183Z,67.80
2018-03-03T15:20:14.709Z,67.60
2018-03-03T15:22:42.174Z,68.00
2018-03-03T15:25:09.674Z,68.30
2018-03-03T15:27:37.182Z,68.90
2018-03-03T15:30:04.675Z,69.20
2018-03-03T15:32:32.183Z,68.90
2018-03-03T15:34:59.703Z,68.90
2018-03-03T15:37:27.218Z,69.20
2018-03-03T15:39:54.731Z,69.50
2018-03-03T15:42:22.212Z,69.40
2018-03-03T15:44:50.541Z,69.20
2018-03-03T15:47:18.006Z,69.10
2018-03-03T15:49:45.492Z,69.50
2018-03-03T15:52:13.777Z,69.80
2018-03-03T15:54:42.045Z,70.20
2018-03-03T15:57:10.279Z,70.60
2018-03-03T15:59:37.779Z,70.50
2018-03-03T16:02:06.052Z,70.90
2018-03-03T16:04:33.528Z,70.80
2018-03-03T16:07:01.818Z,71.40
2018-03-03T16:09:30.076Z,71.10
2018-03-03T16:11:58.369Z,71.10
2018-03-03T16:14:26.603Z,71.80
2018-03-03T16:16:54.150Z,71.80
2018-03-03T16:19:21.629Z,72.00
2018-03-03T16:21:49.160Z,72.50
2018-03-03T16:24:16.690Z,73.00
2018-03-03T16:26:44.922Z,73.90
2018-03-03T16:29:13.251Z,74.20
2018-03-03T16:31:40.753Z,74.20
2018-03-03T16:34:08.263Z,74.70
2018-03-03T16:36:35.764Z,74.80
2018-03-03T16:39:03.270Z,74.70
2018-03-03T16:41:31.528Z,75.20
2018-03-03T16:43:59.076Z,75.20
2018-03-03T16:46:26.562Z,75.50
2018-03-03T16:48:54.149Z,75.30
2018-03-03T16:51:21.614Z,75.30
2018-03-03T16:53:49.161Z,75.40
2018-03-03T16:56:16.695Z,75.30
2018-03-03T16:58:44.982Z,76.10
2018-03-03T17:01:12.482Z,76.10
2018-03-03T17:03:39.944Z,76.10
2018-03-03T17:06:07.431Z,76.20
2018-03-03T17:08:35.889Z,76.40
2018-03-03T17:11:03.754Z,76.90
2018-03-03T17:13:31.264Z,77.20
2018-03-03T17:15:59.546Z,77.60
2018-03-03T17:18:27.047Z,77.60
2018-03-03T17:20:54.627Z,78.30
2018-03-03T17:23:22.088Z,78.50
2018-03-03T17:25:49.551Z,78.30
2018-03-03T17:28:17.079Z,78.40
2018-03-03T17:30:44.571Z,78.10
2018-03-03T17:33:12.852Z,78.30
2018-03-03T17:35:41.119Z,78.50
2018-03-03T17:38:08.624Z,78.50
2018-03-03T17:40:36.115Z,78.70
2018-03-03T17:43:03.628Z,78.90
2018-03-03T17:45:31.877Z,79.40
2018-03-03T17:47:59.375Z,79.40
2018-03-03T17:50:26.883Z,79.60
2018-03-03T17:52:54.401Z,80.10
2018-03-03T17:55:21.920Z,80.30
2018-03-03T17:57:49.423Z,79.80
2018-03-03T18:00:16.922Z,80.20
2018-03-03T18:02:44.387Z,80.40
2018-03-03T18:05:11.919Z,80.40
2018-03-03T18:07:39.411Z,80.50
2018-03-03T18:10:06.940Z,80.70
2018-03-03T18:12:34.434Z,80.70
2018-03-03T18:15:01.959Z,81.00
2018-03-03T18:17:29.458Z,81.10
2018-03-03T18:19:57.693Z,82.00
2018-03-03T18:22:25.205Z,82.00
2018-03-03T18:24:52.672Z,82.50
2018-03-03T18:27:20.214Z,82.30
2018-03-03T18:29:48.462Z,82.20
2018-03-03T18:32:15.975Z,82.20
2018-03-03T18:34:43.467Z,82.50
2018-03-03T18:37:10.963Z,82.90
2018-03-03T18:39:39.282Z,84.10
2018-03-03T18:42:06.764Z,84.10
2018-03-03T18:44:35.046Z,84.50
2018-03-03T18:47:02.538Z,84.50
2018-03-03T18:49:30.813Z,85.00
2018-03-03T18:51:59.126Z,85.50
2018-03-03T18:54:26.639Z,85.40
2018-03-03T18:56:54.158Z,85.40
2018-03-03T18:59:21.735Z,85.80
2018-03-03T19:01:49.243Z,85.70
2018-03-03T19:04:16.762Z,86.00
2018-03-03T19:06:44.291Z,86.70
2018-03-03T19:09:11.773Z,87.00
2018-03-03T19:11:39.294Z,87.50
2018-03-03T19:14:06.794Z,88.00
2018-03-03T19:16:34.291Z,88.50
2018-03-03T19:19:02.528Z,88.40
2018-03-03T19:21:30.075Z,88.40
2018-03-03T19:23:57.562Z,88.80
2018-03-03T19:26:25.064Z,89.10
2018-03-03T19:28:52.595Z,89.10
2018-03-03T19:31:20.846Z,89.20
2018-03-03T19:33:48.373Z,89.20
2018-03-03T19:36:15.895Z,89.60
2018-03-03T19:38:44.151Z,90.00
2018-03-03T19:41:11.672Z,90.00
2018-03-03T19:43:39.190Z,90.10
2018-03-03T19:46:07.452Z,90.20
2018-03-03T19:48:34.960Z,90.20
2018-03-03T19:51:02.480Z,90.30
2018-03-03T19:53:30.745Z,90.40
2018-03-03T19:55:59.020Z,90.40
2018-03-03T19:58:26.542Z,90.40
2018-03-03T20:00:54.040Z,90.50
2018-03-03T20:03:21.648Z,90.50
2018-03-03T20:05:49.099Z,90.50
2018-03-03T20:08:16.625Z,90.50
2018-03-03T20:10:44.138Z,90.80
2018-03-03T20:13:11.639Z,90.70
2018-03-03T20:15:39.145Z,90.80
2018-03-03T20:18:06.660Z,90.90
2018-03-03T20:20:34.185Z,91.00
2018-03-03T20:23:01.703Z,91.00
2018-03-03T20:25:29.237Z,91.20
2018-03-03T20:27:56.720Z,91.10
2018-03-03T20:30:24.286Z,91.20
2018-03-03T20:32:52.543Z,91.30
2018-03-03T20:35:20.853Z,91.40
2018-03-03T20:37:48.382Z,91.40
2018-03-03T20:40:16.616Z,91.50
2018-03-03T20:42:44.099Z,91.50
2018-03-03T20:45:11.633Z,91.50
2018-03-03T20:47:39.131Z,91.60
2018-03-03T20:50:07.405Z,91.80
2018-03-03T20:52:35.659Z,91.90
2018-03-03T20:55:03.206Z,91.90
2018-03-03T20:57:30.719Z,91.90
2018-03-03T20:59:59.025Z,92.00
2018-03-03T21:02:26.555Z,92.00
2018-03-03T21:04:54.843Z,92.20
2018-03-03T21:07:22.315Z,92.20
2018-03-03T21:09:49.802Z,92.20
2018-03-03T21:12:33.140Z,92.20
2018-03-03T21:15:00.649Z,92.30
2018-03-03T21:17:28.171Z,92.30
2018-03-03T21:19:55.671Z,92.30
2018-03-03T21:22:23.196Z,92.40
2018-03-03T21:24:51.456Z,92.40
2018-03-03T21:27:18.994Z,92.40
2018-03-03T21:29:46.499Z,92.40
2018-03-03T21:32:14.791Z,92.50
2018-03-03T21:34:43.048Z,92.50
2018-03-03T21:37:11.332Z,92.50
2018-03-03T21:39:39.592Z,92.50
2018-03-03T21:42:07.099Z,92.50
2018-03-03T21:44:34.600Z,92.50
2018-03-03T21:47:02.100Z,92.50
2018-03-03T21:49:29.611Z,92.50
2018-03-03T21:51:57.118Z,92.50
2018-03-03T21:54:25.384Z,92.50
2018-03-03T21:56:53.652Z,92.50
2018-03-03T21:59:21.940Z,92.50
2018-03-03T22:01:50.203Z,92.50
2018-03-03T22:04:18.479Z,92.50
2018-03-03T22:06:45.987Z,92.50
2018-03-03T22:09:13.476Z,92.50
2018-03-03T22:11:40.979Z,92.50
2018-03-03T22:14:08.487Z,92.40
2018-03-03T22:16:36.009Z,92.50
2018-03-03T22:19:03.486Z,92.50
2018-03-03T22:21:31.032Z,92.50
2018-03-03T22:23:59.289Z,92.50
2018-03-03T22:26:27.571Z,92.50
2018-03-03T22:28:55.815Z,92.50
2018-03-03T22:31:23.341Z,92.50
2018-03-03T22:33:50.862Z,92.50
2018-03-03T22:36:19.111Z,92.50
2018-03-03T22:38:48.120Z,92.50
2018-03-03T22:41:16.375Z,92.50
2018-03-03T22:43:43.871Z,92.50
2018-03-03T22:46:11.354Z,92.50
2018-03-03T22:48:38.891Z,92.50
2018-03-03T22:51:06.393Z,92.60
2018-03-03T22:53:33.885Z,92.50
2018-03-03T22:56:01.417Z,92.50
2018-03-03T22:58:28.900Z,92.50
2018-03-03T23:00:56.413Z,92.50
2018-03-03T23:03:23.915Z,92.60
2018-03-03T23:05:51.476Z,92.60
2018-03-03T23:08:18.939Z,92.60
2018-03-03T23:10:47.187Z,92.60
2018-03-03T23:13:14.728Z,92.60
2018-03-03T23:15:42.244Z,92.60
2018-03-03T23:18:10.507Z,92.60
2018-03-03T23:20:38.053Z,92.60
2018-03-03T23:23:05.523Z,92.60
2018-03-03T23:25:33.043Z,92.60
2018-03-03T23:28:00.565Z,92.60
2018-03-03T23:30:28.840Z,92.60
2018-03-03T23:32:57.083Z,92.60
2018-03-03T23:35:24.611Z,92.60
2018-03-03T23:37:52.107Z,92.60
2018-03-03T23:40:19.645Z,92.60
2018-03-03T23:42:47.120Z,92.60
2018-03-03T23:45:14.644Z,92.60
2018-03-03T23:47:42.126Z,92.60
2018-03-03T23:50:09.651Z,92.60
2018-03-03T23:52:37.115Z,92.60
2018-03-03T23:55:04.637Z,92.60
2018-03-03T23:57:32.871Z,92.60
